createdAt,value
2019-05-17T00:02:26.425Z,9.23
2019-05-17T00:07:33.405Z,9.09
2019-05-17T00:12:40.185Z,8.97
2019-05-17T00:17:47.137Z,9.74
2019-05-17T00:22:53.704Z,10.04
2019-05-17T00:28:00.274Z,9.97
2019-05-17T00:33:07.858Z,19.88
2019-05-17T00:38:16.889Z,12.17
2019-05-17T00:43:26.114Z,10.60
2019-05-17T00:48:32.925Z,11.46
2019-05-17T00:53:39.846Z,11.83
2019-05-17T00:58:47.795Z,11.73
2019-05-17T01:03:54.507Z,11.68
2019-05-17T01:09:04.006Z,11.69
2019-05-17T01:14:10.699Z,12.10
2019-05-17T01:19:17.299Z,10.97
2019-05-17T01:24:23.771Z,11.34
2019-05-17T01:29:30.278Z,10.60
2019-05-17T01:34:37.661Z,11.00
2019-05-17T01:39:46.695Z,10.33
2019-05-17T01:44:53.408Z,10.42
2019-05-17T01:49:59.890Z,10.86
2019-05-17T01:55:06.573Z,11.38
2019-05-17T02:00:13.125Z,10.48
2019-05-17T02:05:19.643Z,10.93
2019-05-17T02:10:27.171Z,10.23
2019-05-17T02:15:33.868Z,9.51
2019-05-17T02:20:40.269Z,10.03
2019-05-17T02:25:47.290Z,8.90
2019-05-17T02:30:54.069Z,8.95
2019-05-17T02:36:02.691Z,9.35
2019-05-17T02:41:09.590Z,9.14
2019-05-17T02:46:15.993Z,9.29
2019-05-17T02:51:23.685Z,9.34
2019-05-17T02:56:32.768Z,9.85
2019-05-17T03:01:39.430Z,10.00
2019-05-17T03:06:46.070Z,9.82
2019-05-17T03:11:56.698Z,9.98
2019-05-17T03:16:54.434Z,10.14
2019-05-17T03:22:04.427Z,10.45
2019-05-17T03:27:04.215Z,10.55
2019-05-17T03:32:16.819Z,10.79
2019-05-17T03:37:16.128Z,11.32
2019-05-17T03:42:23.231Z,10.86
2019-05-17T03:47:33.159Z,11.51
2019-05-17T03:52:33.262Z,12.41
2019-05-17T03:57:43.639Z,11.93
2019-05-17T04:02:44.613Z,13.08
2019-05-17T04:07:43.605Z,12.40
2019-05-17T04:12:52.974Z,12.62
2019-05-17T04:18:03.684Z,13.36
2019-05-17T04:23:03.959Z,13.14
2019-05-17T04:28:13.863Z,13.63
2019-05-17T04:33:23.272Z,13.44
2019-05-17T04:38:33.165Z,14.05
2019-05-17T04:43:42.419Z,14.57
2019-05-17T04:48:49.627Z,14.14
2019-05-17T04:53:56.186Z,15.73
2019-05-17T04:59:03.512Z,16.27
2019-05-17T05:04:10.189Z,15.59
2019-05-17T05:09:16.888Z,14.84
2019-05-17T05:14:23.595Z,13.93
2019-05-17T05:19:32.740Z,15.04
2019-05-17T05:24:42.222Z,14.62
2019-05-17T05:29:49.036Z,14.57
2019-05-17T05:34:55.754Z,14.69
2019-05-17T05:40:02.764Z,14.36
2019-05-17T05:45:11.972Z,12.85
2019-05-17T05:50:18.828Z,12.77
2019-05-17T05:55:25.864Z,12.86
2019-05-17T06:00:33.093Z,12.51
2019-05-17T06:05:42.371Z,11.85
2019-05-17T06:10:49.133Z,11.15
2019-05-17T06:15:55.654Z,12.35
2019-05-17T06:21:03.193Z,13.45
2019-05-17T06:26:12.291Z,12.87
2019-05-17T06:31:19.160Z,12.18
2019-05-17T06:36:25.649Z,12.03
2019-05-17T06:41:32.428Z,11.85
2019-05-17T06:46:41.614Z,10.93
2019-05-17T06:51:48.508Z,11.78
2019-05-17T06:56:55.463Z,15.56
2019-05-17T07:02:01.954Z,12.15
2019-05-17T07:07:10.647Z,11.42
2019-05-17T07:12:20.237Z,12.28
2019-05-17T07:17:26.946Z,13.07
2019-05-17T07:22:33.825Z,11.84
2019-05-17T07:27:42.643Z,12.16
2019-05-17T07:32:42.296Z,12.84
2019-05-17T07:37:50.189Z,12.36
2019-05-17T07:43:09.740Z,12.75
2019-05-17T07:48:04.078Z,11.49
2019-05-17T07:53:10.837Z,11.51
2019-05-17T07:58:21.122Z,11.86
2019-05-17T08:03:20.703Z,12.12
2019-05-17T08:08:30.544Z,12.39
2019-05-17T08:13:33.023Z,11.15
2019-05-17T08:18:32.015Z,11.56
2019-05-17T08:23:39.965Z,11.47
2019-05-17T08:28:49.781Z,11.61
2019-05-17T08:33:57.279Z,10.95
2019-05-17T08:39:04.420Z,11.92
2019-05-17T08:44:11.341Z,13.61
2019-05-17T08:49:20.169Z,13.57
2019-05-17T08:54:27.239Z,11.92
2019-05-17T08:59:34.071Z,12.15
2019-05-17T09:04:40.936Z,12.86
2019-05-17T09:09:49.996Z,12.61
2019-05-17T09:14:57.048Z,12.59
2019-05-17T09:20:04.297Z,12.49
2019-05-17T09:25:17.099Z,11.82
2019-05-17T09:30:16.862Z,12.41
2019-05-17T09:35:24.396Z,12.33
2019-05-17T09:40:32.565Z,12.82
2019-05-17T09:45:40.359Z,13.01
2019-05-17T09:50:50.229Z,13.48
2019-05-17T09:55:57.146Z,12.77
2019-05-17T10:01:03.735Z,13.47
2019-05-17T10:06:10.351Z,13.23
2019-05-17T10:11:20.075Z,13.12
2019-05-17T10:16:20.048Z,11.48
2019-05-17T10:21:19.865Z,11.50
2019-05-17T10:26:30.198Z,11.46
2019-05-17T10:31:30.248Z,11.00
2019-05-17T10:36:40.128Z,9.81
2019-05-17T10:41:49.929Z,9.92
2019-05-17T10:46:57.780Z,9.79
2019-05-17T10:52:05.189Z,8.92
2019-05-17T10:57:16.491Z,9.90
2019-05-17T11:02:15.777Z,7.38
2019-05-17T11:07:22.744Z,7.98
2019-05-17T11:12:31.110Z,8.41
2019-05-17T11:17:38.238Z,8.31
2019-05-17T11:22:45.834Z,8.68
2019-05-17T11:27:52.748Z,7.98
2019-05-17T11:33:02.105Z,7.54
2019-05-17T11:38:10.086Z,8.30
2019-05-17T11:43:17.918Z,7.45
2019-05-17T11:48:25.897Z,6.58
2019-05-17T11:53:33.423Z,7.06
2019-05-17T11:58:42.463Z,6.61
2019-05-17T12:03:54.012Z,7.06
2019-05-17T12:08:52.853Z,7.60
2019-05-17T12:14:00.373Z,8.09
2019-05-17T12:19:07.419Z,9.53
2019-05-17T12:24:14.291Z,10.36
2019-05-17T12:29:21.148Z,8.81
2019-05-17T12:34:28.118Z,8.46
2019-05-17T12:39:34.975Z,8.73
2019-05-17T12:44:41.743Z,7.79
2019-05-17T12:49:48.438Z,9.95
2019-05-17T12:54:55.131Z,8.54
2019-05-17T13:00:01.697Z,7.97
2019-05-17T13:05:08.544Z,7.82
2019-05-17T13:10:14.989Z,7.80
2019-05-17T13:15:21.604Z,7.89
2019-05-17T13:20:28.693Z,7.26
2019-05-17T13:25:35.601Z,7.01
2019-05-17T13:30:42.730Z,7.38
2019-05-17T13:35:49.419Z,8.21
2019-05-17T13:40:56.263Z,9.03
2019-05-17T13:46:02.878Z,8.20
2019-05-17T13:51:09.355Z,8.16
2019-05-17T13:56:16.083Z,8.14
2019-05-17T14:01:24.018Z,8.29
2019-05-17T14:06:30.746Z,8.41
2019-05-17T14:11:37.180Z,7.73
2019-05-17T14:16:43.961Z,7.90
2019-05-17T14:21:50.455Z,7.99
2019-05-17T14:26:56.945Z,9.22
2019-05-17T14:32:03.757Z,8.71
2019-05-17T14:37:10.348Z,8.50
2019-05-17T14:42:16.766Z,8.49
2019-05-17T14:47:23.206Z,8.83
2019-05-17T14:52:29.625Z,9.64
2019-05-17T14:57:36.061Z,9.47
2019-05-17T15:02:42.636Z,8.82
2019-05-17T15:07:49.089Z,9.05
2019-05-17T15:12:55.789Z,9.06
2019-05-17T15:18:02.322Z,8.45
2019-05-17T15:23:08.779Z,8.39
2019-05-17T15:28:15.399Z,8.47
2019-05-17T15:33:21.955Z,8.62
2019-05-17T15:38:28.386Z,7.83
2019-05-17T15:43:36.191Z,7.96
2019-05-17T15:48:42.909Z,7.46
2019-05-17T15:53:49.374Z,7.97
2019-05-17T15:58:56.807Z,7.92
2019-05-17T16:04:03.307Z,7.62
2019-05-17T16:09:10.081Z,8.04
2019-05-17T16:14:16.653Z,10.31
2019-05-17T16:19:23.278Z,7.80
2019-05-17T16:24:30.185Z,8.38
2019-05-17T16:29:37.356Z,8.94
2019-05-17T16:34:44.058Z,9.13
2019-05-17T16:39:50.543Z,8.82
2019-05-17T16:44:56.971Z,9.34
2019-05-17T16:50:03.395Z,8.97
2019-05-17T16:55:10.000Z,8.74
2019-05-17T17:00:16.608Z,11.69
2019-05-17T17:05:23.216Z,9.26
2019-05-17T17:10:29.743Z,9.58
2019-05-17T17:15:36.336Z,9.28
2019-05-17T17:20:42.784Z,9.68
2019-05-17T17:25:49.370Z,11.24
2019-05-17T17:30:55.924Z,9.77
2019-05-17T17:36:02.464Z,10.37
2019-05-17T17:41:09.313Z,9.86
2019-05-17T17:46:15.705Z,10.15
2019-05-17T17:51:22.158Z,10.21
2019-05-17T17:56:28.581Z,9.20
2019-05-17T18:01:34.960Z,10.60
2019-05-17T18:06:41.695Z,10.16
2019-05-17T18:11:48.093Z,10.00
2019-05-17T18:16:54.776Z,10.24
2019-05-17T18:22:01.461Z,10.22
2019-05-17T18:27:08.216Z,10.06
2019-05-17T18:30:22.236Z,8.16
2019-05-17T18:36:18.816Z,9.93
2019-05-17T18:41:25.695Z,11.26
2019-05-17T18:46:31.912Z,13.98
2019-05-17T18:51:38.621Z,15.72
2019-05-17T18:56:44.821Z,13.77
2019-05-17T19:01:51.095Z,15.10
2019-05-17T19:06:57.423Z,17.45
2019-05-17T19:12:03.877Z,15.22
2019-05-17T19:17:10.352Z,17.14
2019-05-17T19:22:16.669Z,17.28
2019-05-17T19:27:23.050Z,17.59
2019-05-17T19:32:29.251Z,16.75
2019-05-17T19:37:35.609Z,18.74
2019-05-17T19:42:41.871Z,19.79
2019-05-17T19:47:48.745Z,22.27
2019-05-17T19:52:55.234Z,26.71
2019-05-17T19:58:01.985Z,23.26
2019-05-17T20:03:08.338Z,20.18
2019-05-17T20:08:15.213Z,17.53
2019-05-17T20:13:21.932Z,17.32
2019-05-17T20:18:28.264Z,19.11
2019-05-17T20:23:34.778Z,18.04
2019-05-17T20:28:41.060Z,18.68
2019-05-17T20:33:47.295Z,18.86
2019-05-17T20:38:53.626Z,19.04
2019-05-17T20:44:00.455Z,19.12
2019-05-17T20:49:06.904Z,16.56
2019-05-17T20:54:13.354Z,17.31
2019-05-17T20:59:19.583Z,17.50
2019-05-17T21:04:25.770Z,21.53
2019-05-17T21:09:32.100Z,21.71
2019-05-17T21:14:38.539Z,21.19
2019-05-17T21:19:45.724Z,19.63
2019-05-17T21:24:52.515Z,19.38
2019-05-17T21:29:58.759Z,20.74
2019-05-17T21:35:05.283Z,21.09
2019-05-17T21:40:11.587Z,23.05
2019-05-17T21:45:17.849Z,21.18
2019-05-17T21:50:23.952Z,22.97
2019-05-17T21:55:30.413Z,21.37
2019-05-17T22:00:36.539Z,22.96
2019-05-17T22:05:42.759Z,22.39
2019-05-17T22:10:48.948Z,22.59
2019-05-17T22:15:55.152Z,23.45
2019-05-17T22:21:01.505Z,25.36
2019-05-17T22:26:08.968Z,24.63
2019-05-17T22:31:15.414Z,27.14
2019-05-17T22:36:21.860Z,25.18
2019-05-17T22:41:28.061Z,25.34
2019-05-17T22:46:36.371Z,25.87
2019-05-17T22:51:42.888Z,26.15
2019-05-17T22:56:49.304Z,25.73
2019-05-17T23:01:55.569Z,25.12
2019-05-17T23:07:01.815Z,26.14
2019-05-17T23:12:08.008Z,26.37
2019-05-17T23:17:14.095Z,26.24
2019-05-17T23:22:20.375Z,26.09
2019-05-17T23:27:26.539Z,27.72
2019-05-17T23:32:32.831Z,27.82
2019-05-17T23:37:39.001Z,25.78
2019-05-17T23:42:45.392Z,26.04
2019-05-17T23:47:51.559Z,26.89
2019-05-17T23:52:57.741Z,25.73
2019-05-17T23:58:03.963Z,26.08
